Colleyville, Texas
Current Conditions -  °F | °C
As of 6:53 PM on Thursday 27 Nov 2014 (Local Time) from KDFW Reporting Station
Few Clouds Few Clouds  
Wind Chill: 47°   Ceiling: Unl
Heat Index: 49°   Visibility: 10mi
Dew Point: 23°   Wind: 6mph
Humidity: 36%   Direction: 150°SSE
Pressure: 30.38"   Gusts: NA
Location:  32.89°N, 97.16°W
Report Text: KDFW 280053Z 15005KT 10SM FEW250 09/M05 A3038 RMK AO2 SLP289 T00941050
Loading
Personal Weather Stations






























Interactive Weather Map New forecast layout! Learn more

10-Day Weather Forecast

Advertisements
Track Severe Weather on mobile